»·PEaware :: N172TT KSNA-KSMO

N172TT :: KSNA-KSMO

FLIGHT INFORMATION

Flight Status: Arrived
Operator: Privately registered:
United States
More flights under this callsign
Pilot: Thomas T. (19955)
Aircraft: CESSNA 172 SKYHAWK
(C172)
More flights by this aircraft type
Origin: KSNA John Wayne-Orange Co
United States
Destination: KSMO Santa Monica Mun
United States
More flights between these airports :: More routes between these airports
Route: KSNA V8 POXKU BAYJY V186 DARTS KSMO
File this flight plan on PilotEdge
Remarks: TEC CSTP9 IFR I4 RATING
Altitude:
(Current/Filed)
6,000ft
Speed:
(Current/Filed)
118kts
Departed: 10-Oct-18 12:46 PM
Arrived: 10-Oct-18 01:28 PM
Distance/Time
Traveled:
36nm/0:42
Distance/Time
To Go:
Arrived

Flight Plot

Page will automatically refresh every two minutes.

Flight plan parsing failed; only flown route is shown


Map Options




Map Legend


Flown Route
Filed Route
Departure Airport
Arrival Airport
Navaid (VOR, NDB)
Fix

Horizontal Profiles

Position Reports

Time Latitude Longitude Heading Altitude Ground
Speed
10-Oct-18 12:28 33.676080 -117.870909 219 60ft 0kts
10-Oct-18 12:29 33.676080 -117.870909 219 60ft 0kts
10-Oct-18 12:30 33.676080 -117.870909 219 60ft 0kts
10-Oct-18 12:31 33.676080 -117.870909 219 60ft 0kts
10-Oct-18 12:32 33.676080 -117.870909 219 60ft 0kts
10-Oct-18 12:33 33.676080 -117.870909 219 60ft 0kts
10-Oct-18 12:34 33.676080 -117.870909 219 60ft 0kts
10-Oct-18 12:35 33.676080 -117.870909 219 60ft 0kts
10-Oct-18 12:36 33.676080 -117.870909 219 60ft 0kts
10-Oct-18 12:37 33.676080 -117.870909 219 60ft 0kts
10-Oct-18 12:38 33.676080 -117.870909 219 60ft 0kts
10-Oct-18 12:39 33.676080 -117.870909 219 60ft 0kts
10-Oct-18 12:40 33.676080 -117.870909 219 60ft 0kts
10-Oct-18 12:41 33.676080 -117.870909 219 60ft 0kts
10-Oct-18 12:42 33.677871 -117.868952 26 60ft 18kts
10-Oct-18 12:43 33.681154 -117.866934 59 60ft 5kts
10-Oct-18 12:44 33.681199 -117.866757 89 60ft 0kts
10-Oct-18 12:45 33.681199 -117.866757 89 60ft 0kts
10-Oct-18 12:46 33.681199 -117.866757 89 60ft 0kts
10-Oct-18 12:47 33.680466 -117.865814 205 60ft 0kts
10-Oct-18 12:48 33.666707 -117.873896 208 450ft 83kts
10-Oct-18 12:49 33.652215 -117.898866 243 1039ft 100kts
10-Oct-18 12:50 33.639832 -117.927690 242 1629ft 98kts
10-Oct-18 12:51 33.628552 -117.956894 279 2221ft 96kts
10-Oct-18 12:52 33.650593 -117.960349 20 2798ft 96kts
10-Oct-18 12:53 33.671588 -117.940884 36 3393ft 95kts
10-Oct-18 12:54 33.691793 -117.921789 35 3984ft 92kts
10-Oct-18 12:55 33.713167 -117.902459 34 4583ft 99kts
10-Oct-18 12:56 33.733760 -117.884048 35 5140ft 95kts
10-Oct-18 12:57 33.751410 -117.868340 34 5668ft 81kts
10-Oct-18 12:58 33.768076 -117.853676 35 5996ft 105kts
10-Oct-18 12:59 33.788502 -117.835360 35 6000ft 116kts
10-Oct-18 13:00 33.809160 -117.816937 35 6000ft 117kts
10-Oct-18 13:01 33.831236 -117.797313 35 6000ft 118kts
10-Oct-18 13:02 33.855396 -117.780228 3 5999ft 117kts
10-Oct-18 13:03 33.885913 -117.779522 359 5999ft 117kts
10-Oct-18 13:04 33.916714 -117.779725 358 5996ft 113kts
10-Oct-18 13:05 33.947333 -117.780177 358 5994ft 109kts
10-Oct-18 13:06 33.976964 -117.780703 357 5993ft 108kts
10-Oct-18 13:07 34.005170 -117.784495 313 5991ft 106kts
10-Oct-18 13:08 34.018577 -117.815038 293 5993ft 106kts
10-Oct-18 13:09 34.028802 -117.844598 291 5992ft 106kts
10-Oct-18 13:10 34.038872 -117.878388 287 5992ft 106kts
10-Oct-18 13:11 34.047817 -117.909694 289 5644ft 117kts
10-Oct-18 13:12 34.056928 -117.939447 289 5233ft 114kts
10-Oct-18 13:13 34.069784 -117.981143 288 4642ft 115kts
10-Oct-18 13:14 34.081035 -118.017630 287 4077ft 116kts
10-Oct-18 13:15 34.089629 -118.045577 287 4025ft 101kts
10-Oct-18 13:16 34.100545 -118.081171 287 4027ft 98kts
10-Oct-18 13:17 34.108372 -118.106653 287 4024ft 97kts
10-Oct-18 13:18 34.117541 -118.136535 287 4021ft 101kts
10-Oct-18 13:19 34.125702 -118.163124 287 4021ft 107kts
10-Oct-18 13:20 34.135398 -118.194732 287 4019ft 110kts
10-Oct-18 13:21 34.145862 -118.228896 287 4015ft 111kts
10-Oct-18 13:22 34.155723 -118.263441 267 4010ft 109kts
10-Oct-18 13:23 34.139826 -118.293525 228 3999ft 108kts
10-Oct-18 13:24 34.117987 -118.322711 226 3509ft 124kts
10-Oct-18 13:25 34.094947 -118.352720 226 3057ft 122kts
10-Oct-18 13:26 34.074535 -118.379247 226 2776ft 102kts
10-Oct-18 13:27 34.057061 -118.405106 224 1601ft 101kts
10-Oct-18 13:28 34.038385 -118.425019 219 736ft 79kts
10-Oct-18 13:29 34.024523 -118.441027 225 342ft 62kts
10-Oct-18 13:30 34.015564 -118.451667 226 136ft 21kts
10-Oct-18 13:31 34.015352 -118.453379 319 136ft 0kts
10-Oct-18 13:32 34.015352 -118.453379 319 136ft 0kts
10-Oct-18 13:33 34.015352 -118.453379 319 136ft 0kts
10-Oct-18 13:34 34.015352 -118.453379 319 136ft 0kts

Navigation Log

Ident Type
Flight plan parsing failed, navigation log unavailable